createdAt,value
2022-09-27T00:00:13.542Z,0.70
2022-09-27T00:05:18.360Z,0.77
2022-09-27T00:10:21.135Z,0.57
2022-09-27T00:15:23.588Z,0.60
2022-09-27T00:20:27.577Z,0.70
2022-09-27T00:25:30.094Z,0.82
2022-09-27T00:30:32.807Z,0.90
2022-09-27T00:35:36.805Z,0.70
2022-09-27T00:40:39.824Z,0.55
2022-09-27T00:45:43.302Z,0.80
2022-09-27T00:50:51.203Z,0.93
2022-09-27T00:55:56.113Z,0.80
2022-09-27T01:01:02.797Z,0.93
2022-09-27T01:06:09.293Z,1.30
2022-09-27T01:11:21.414Z,1.10
2022-09-27T01:16:35.141Z,1.08
2022-09-27T01:21:57.059Z,0.88
2022-09-27T01:27:35.802Z,0.70
2022-09-27T01:32:48.736Z,0.77
2022-09-27T01:38:02.517Z,0.80
2022-09-27T01:43:10.030Z,1.02
2022-09-27T01:48:18.882Z,0.70
2022-09-27T01:53:26.032Z,0.88
2022-09-27T01:58:34.704Z,0.80
2022-09-27T02:03:42.703Z,0.80
2022-09-27T02:08:49.649Z,0.90
2022-09-27T02:13:58.253Z,0.80
2022-09-27T02:19:10.738Z,0.90
2022-09-27T02:24:21.670Z,1.02
2022-09-27T02:29:30.779Z,1.10
2022-09-27T02:34:36.790Z,1.00
2022-09-27T02:39:39.539Z,0.90
2022-09-27T02:44:42.949Z,0.95
2022-09-27T02:50:03.432Z,0.90
2022-09-27T02:55:15.108Z,1.00
2022-09-27T03:00:20.519Z,0.80
2022-09-27T03:05:28.307Z,0.60
2022-09-27T03:10:30.918Z,0.63
2022-09-27T03:15:33.861Z,0.50
2022-09-27T03:20:37.787Z,1.00
2022-09-27T03:25:41.150Z,0.50
2022-09-27T03:30:45.489Z,0.50
2022-09-27T03:35:49.807Z,0.60
2022-09-27T03:40:52.603Z,0.47
2022-09-27T03:45:55.357Z,0.50
2022-09-27T03:50:59.222Z,0.50
2022-09-27T03:56:02.360Z,0.68
2022-09-27T04:01:04.997Z,0.75
2022-09-27T04:06:10.406Z,0.40
2022-09-27T04:15:31.115Z,0.80
2022-09-27T04:20:35.963Z,0.85
2022-09-27T04:25:38.947Z,0.60
2022-09-27T04:30:43.373Z,0.75
2022-09-27T04:35:45.923Z,0.40
2022-09-27T04:40:48.495Z,0.50
2022-09-27T04:45:52.552Z,0.60
2022-09-27T04:50:58.791Z,0.55
2022-09-27T04:56:01.937Z,0.70
2022-09-27T05:01:07.130Z,0.65
2022-09-27T05:06:09.797Z,0.90
2022-09-27T05:11:12.711Z,1.02
2022-09-27T05:16:16.779Z,0.70
2022-09-27T05:21:19.901Z,0.50
2022-09-27T05:26:22.523Z,0.80
2022-09-27T05:31:26.537Z,1.08
2022-09-27T05:36:29.070Z,2.33
2022-09-27T05:41:32.100Z,1.13
2022-09-27T05:46:36.684Z,1.10
2022-09-27T05:51:39.535Z,0.70
2022-09-27T05:56:42.439Z,1.17
2022-09-27T06:01:46.759Z,0.70
2022-09-27T06:06:49.651Z,0.40
2022-09-27T06:11:52.504Z,0.50
2022-09-27T06:16:56.658Z,0.70
2022-09-27T06:21:59.304Z,0.77
2022-09-27T06:27:02.157Z,0.98
2022-09-27T06:32:06.318Z,0.80
2022-09-27T06:37:08.681Z,2.30
2022-09-27T06:42:11.442Z,2.75
2022-09-27T06:47:15.678Z,2.28
2022-09-27T06:52:18.274Z,2.00
2022-09-27T06:57:21.296Z,0.80
2022-09-27T07:02:25.330Z,0.70
2022-09-27T07:07:29.608Z,1.17
2022-09-27T07:12:32.010Z,1.10
2022-09-27T07:17:36.153Z,1.40
2022-09-27T07:22:40.860Z,1.13
2022-09-27T07:27:43.931Z,0.90
2022-09-27T07:32:48.713Z,1.15
2022-09-27T07:37:51.123Z,2.00
2022-09-27T07:42:57.863Z,2.53
2022-09-27T07:48:04.933Z,2.92
2022-09-27T07:53:07.621Z,1.67
2022-09-27T07:58:11.547Z,3.42
2022-09-27T08:03:17.539Z,2.17
2022-09-27T08:08:20.262Z,1.20
2022-09-27T08:13:22.988Z,1.80
2022-09-27T08:18:27.504Z,1.58
2022-09-27T08:23:31.221Z,1.67
2022-09-27T08:28:33.771Z,1.05
2022-09-27T08:33:41.499Z,0.80
2022-09-27T08:38:44.741Z,1.15
2022-09-27T08:43:56.581Z,0.90
2022-09-27T08:49:13.934Z,0.90
2022-09-27T08:54:22.556Z,0.80
2022-09-27T08:59:30.622Z,1.08
2022-09-27T09:04:37.987Z,0.82
2022-09-27T09:15:01.474Z,1.00
2022-09-27T09:20:26.349Z,0.73
2022-09-27T09:25:36.965Z,0.63
2022-09-27T09:30:52.360Z,0.70
2022-09-27T09:36:02.531Z,0.80
2022-09-27T09:41:13.171Z,1.10
2022-09-27T09:46:21.487Z,0.93
2022-09-27T09:51:32.381Z,0.75
2022-09-27T09:56:40.430Z,0.73
2022-09-27T10:01:46.005Z,0.85
2022-09-27T10:06:51.939Z,0.80
2022-09-27T10:11:54.767Z,0.65
2022-09-27T10:17:00.144Z,0.40
2022-09-27T10:22:14.113Z,0.38
2022-09-27T10:27:16.554Z,1.10
2022-09-27T10:32:23.391Z,0.95
2022-09-27T10:37:27.717Z,0.68
2022-09-27T10:42:36.305Z,0.60
2022-09-27T10:47:38.743Z,0.60
2022-09-27T10:52:43.007Z,0.40
2022-09-27T10:57:50.237Z,0.85
2022-09-27T11:07:58.241Z,0.45
2022-09-27T11:13:09.388Z,0.55
2022-09-27T11:18:24.598Z,0.65
2022-09-27T11:23:47.257Z,0.40
2022-09-27T11:28:58.574Z,0.50
2022-09-27T11:34:16.545Z,0.35
2022-09-27T11:39:29.619Z,0.30
2022-09-27T11:45:19.868Z,0.68
2022-09-27T11:50:48.442Z,0.90
2022-09-27T11:56:03.787Z,0.30
2022-09-27T12:01:21.658Z,0.38
2022-09-27T12:06:30.102Z,0.40
2022-09-27T12:11:39.351Z,0.30
2022-09-27T12:16:42.670Z,0.40
2022-09-27T12:21:45.439Z,0.90
2022-09-27T12:26:51.837Z,0.60
2022-09-27T12:32:05.481Z,0.70
2022-09-27T12:37:14.578Z,0.50
2022-09-27T12:42:22.789Z,0.25
2022-09-27T12:47:46.120Z,4.65
2022-09-27T12:52:55.674Z,1.27
2022-09-27T12:58:39.922Z,1.33
2022-09-27T13:04:00.392Z,0.30
2022-09-27T13:09:34.298Z,0.55
2022-09-27T13:14:45.381Z,0.30
2022-09-27T13:19:47.772Z,0.30
2022-09-27T13:24:50.547Z,0.50
2022-09-27T13:30:38.616Z,0.22
2022-09-27T13:35:41.060Z,0.30
2022-09-27T13:40:43.615Z,0.57
2022-09-27T13:45:53.838Z,0.60
2022-09-27T13:51:01.706Z,0.40
2022-09-27T13:56:05.764Z,0.40
2022-09-27T14:01:20.129Z,0.50
2022-09-27T14:06:26.882Z,0.50
2022-09-27T14:11:34.158Z,0.57
2022-09-27T14:16:42.823Z,0.50
2022-09-27T14:21:47.291Z,0.30
2022-09-27T14:26:50.636Z,1.40
2022-09-27T14:32:07.344Z,1.35
2022-09-27T14:37:22.058Z,0.50
2022-09-27T14:42:27.335Z,4.38
2022-09-27T14:47:32.480Z,1.00
2022-09-27T14:52:35.172Z,0.50
2022-09-27T14:57:38.585Z,0.63
2022-09-27T15:02:43.518Z,1.10
2022-09-27T15:07:47.509Z,0.60
2022-09-27T15:12:51.755Z,0.40
2022-09-27T15:17:55.642Z,0.60
2022-09-27T15:22:59.766Z,0.40
2022-09-27T15:28:06.049Z,0.38
2022-09-27T15:33:20.281Z,0.38
2022-09-27T15:38:30.541Z,0.50
2022-09-27T15:43:36.057Z,0.50
2022-09-27T15:48:40.349Z,0.30
2022-09-27T15:53:46.869Z,0.47
2022-09-27T15:58:49.222Z,0.50
2022-09-27T16:03:53.057Z,0.30
2022-09-27T16:08:55.704Z,0.45
2022-09-27T16:13:58.452Z,0.30
2022-09-27T16:19:02.422Z,0.40
2022-09-27T16:24:06.314Z,0.68
2022-09-27T16:29:11.891Z,0.63
2022-09-27T16:34:15.864Z,0.40
2022-09-27T16:39:18.442Z,0.55
2022-09-27T16:44:21.017Z,0.50
2022-09-27T16:49:25.029Z,0.60
2022-09-27T16:54:28.539Z,0.80
2022-09-27T16:59:32.050Z,0.68
2022-09-27T17:04:36.567Z,0.80
2022-09-27T17:09:39.069Z,0.80
2022-09-27T17:14:42.166Z,1.30
2022-09-27T17:19:46.199Z,0.90
2022-09-27T17:24:48.728Z,0.80
2022-09-27T17:29:51.322Z,0.93
2022-09-27T17:34:55.926Z,0.73
2022-09-27T17:39:58.352Z,1.00
2022-09-27T17:45:00.888Z,0.70
2022-09-27T17:50:05.245Z,0.70
2022-09-27T17:55:09.080Z,1.08
2022-09-27T18:00:12.002Z,1.20
2022-09-27T18:05:16.343Z,0.98
2022-09-27T18:10:18.898Z,1.30
2022-09-27T18:15:21.739Z,1.30
2022-09-27T18:20:26.671Z,1.45
2022-09-27T18:25:29.548Z,1.42
2022-09-27T18:30:34.108Z,1.17
2022-09-27T18:35:37.986Z,1.35
2022-09-27T18:40:55.677Z,1.55
2022-09-27T18:46:17.909Z,1.58
2022-09-27T18:51:27.140Z,1.70
2022-09-27T18:56:31.480Z,2.10
2022-09-27T19:01:34.813Z,1.70
2022-09-27T19:06:40.062Z,1.70
2022-09-27T19:11:42.671Z,1.98
2022-09-27T19:16:45.466Z,1.73
2022-09-27T19:21:49.519Z,1.88
2022-09-27T19:26:52.275Z,1.85
2022-09-27T19:31:55.086Z,1.80
2022-09-27T19:36:59.379Z,1.88
2022-09-27T19:42:03.403Z,1.60
2022-09-27T19:47:06.170Z,1.77
2022-09-27T19:52:10.270Z,1.40
2022-09-27T19:57:14.074Z,1.80
2022-09-27T20:02:16.563Z,1.60
2022-09-27T20:07:20.794Z,2.00
2022-09-27T20:12:24.228Z,1.80
2022-09-27T20:17:27.193Z,2.10
2022-09-27T20:22:31.266Z,1.65
2022-09-27T20:27:34.879Z,1.70
2022-09-27T20:32:37.433Z,2.00
2022-09-27T20:37:41.735Z,1.80
2022-09-27T20:42:44.794Z,1.85
2022-09-27T20:47:47.404Z,1.98
2022-09-27T20:52:51.214Z,2.17
2022-09-27T20:57:57.681Z,1.85
2022-09-27T21:03:00.599Z,1.92
2022-09-27T21:08:04.455Z,1.90
2022-09-27T21:13:06.839Z,2.05
2022-09-27T21:18:09.347Z,1.67
2022-09-27T21:23:13.669Z,1.40
2022-09-27T21:28:16.243Z,1.90
2022-09-27T21:33:18.739Z,1.40
2022-09-27T21:38:23.139Z,2.00
2022-09-27T21:43:27.292Z,1.95
2022-09-27T21:48:30.372Z,1.40
2022-09-27T21:53:35.117Z,1.58
2022-09-27T21:58:39.313Z,1.80
2022-09-27T22:03:43.155Z,1.70
2022-09-27T22:08:48.495Z,1.70
2022-09-27T22:13:50.989Z,1.45
2022-09-27T22:18:55.546Z,1.50
2022-09-27T22:24:07.525Z,1.40
2022-09-27T22:29:10.910Z,1.33
2022-09-27T22:34:16.359Z,1.65
2022-09-27T22:39:20.134Z,1.70
2022-09-27T22:44:22.493Z,1.55
2022-09-27T22:49:24.903Z,1.60
2022-09-27T22:54:28.729Z,1.80
2022-09-27T22:59:30.977Z,1.80
2022-09-27T23:04:33.329Z,1.77
2022-09-27T23:09:37.327Z,1.58
2022-09-27T23:14:42.641Z,2.10
2022-09-27T23:19:45.385Z,2.00
2022-09-27T23:24:49.299Z,1.75
2022-09-27T23:29:51.656Z,1.85
2022-09-27T23:34:53.861Z,2.08
2022-09-27T23:39:57.693Z,1.88
2022-09-27T23:45:00.234Z,2.05
2022-09-27T23:50:03.763Z,1.88
2022-09-27T23:55:08.570Z,2.20
